Pagrindinis puslapis
METAR-TAF:

METAR-TAF

Oro uostai :

Bandar Kangan, Iranas

platuma: 27-49-14N, ilguma: 52-21-08E, Aukštis: 662 m

Dabartinis oras

Ataskaita buvo paskelbta 1 valandą ir 5 minutes, ne 10:00 UTC
Vėjas 6 kt iš Šiaurės/Šiaurės Rytų
Temperatūra 42°C
Drėgmė 8%
Slėgis 1010 hPa
Matomumas 10 km arba daugiau
nėra debesų žemiau 1500 m ir nėra kamuolinių lietaus debesų

METAR: OIBJ 171000Z 02006KT CAVOK 42/01 Q1010

Laikas: 15:35 (11:05 UTC)


TAF: trūkstamas

Orai ataskaitas ir orų prognozės (METAR, TAF).

turimą stotys yra geltonos ir raudonos taškus žemėlapyje.

Perkelti pele per norėdami pamatyti stoties vardą.

Tada spustelėkite, norėdami matyti oro stebėjimo ir prognozės.

Norėdami pakeisti žemėlapį: spustelėkite ant žalios mygtukų su juodo kryžiaus žemyn,; žalią mygtuką su brūkšneliu, jei norite nutolinti; arba žalių rodyklių gretimoms žemėlapius.


METAR-TAF: